.
WxDataArchive / Data Records for 2007-06-06
2007-06-05 June 2007 2007-06-07

Data Records for Wednesday, 06 June 2007

Time	Temp	Chill	HIndex	Humid	Dewpt	 Wind 	HiWind	WindDir	Rain 	Barom 
-----	----	-----	------	-----	-----	------	------	-------	-----	----- 
00:00	53.2	53.2	53.2	80	47.2	0	0	---	0.00	29.826 
00:05	53.2	53.2	53.2	79	46.9	0	0	---	0.00	29.828 
00:10	53.2	53.2	53.2	79	46.9	0	0	---	0.00	29.828 
00:15	53.2	53.2	53.2	79	46.9	0	0	---	0.00	29.826 
00:20	53.2	53.2	53.2	79	46.9	0	0	---	0.00	29.827 
00:25	53.1	53.1	53.1	79	46.8	0	0	---	0.00	29.829 
00:30	53.2	53.2	53.2	79	46.9	0	1	338	0.00	29.830 
00:35	53.2	53.2	53.2	79	46.9	0	1	338	0.00	29.832 
00:40	53.3	53.3	53.3	79	47.0	0	1	338	0.00	29.832 
00:45	53.2	53.2	53.2	79	46.9	0	0	---	0.00	29.833 
00:50	53.2	53.2	53.2	79	46.9	0	0	---	0.00	29.834 
00:55	53.1	53.1	53.1	80	47.1	0	0	---	0.00	29.832 
01:00	52.9	52.9	52.9	80	46.9	0	1	338	0.00	29.833 
01:05	52.8	52.8	52.8	80	46.8	0	0	---	0.00	29.835 
01:10	52.5	52.5	52.5	81	46.8	0	1	338	0.00	29.836 
01:15	52.3	52.3	52.3	81	46.6	0	1	338	0.00	29.839 
01:20	52.2	52.2	52.2	81	46.5	0	1	338	0.00	29.837 
01:25	52.0	52.0	52.0	81	46.4	0	1	338	0.00	29.838 
01:30	52.0	52.0	52.0	81	46.4	0	2	338	0.00	29.837 
01:35	51.9	51.9	51.9	81	46.3	0	1	338	0.00	29.838 
01:40	51.7	51.7	51.7	81	46.1	0	1	338	0.00	29.839 
01:45	51.6	51.6	51.6	81	46.0	0	1	338	0.00	29.840 
01:50	51.4	51.4	51.4	82	46.1	0	1	338	0.00	29.841 
01:55	51.3	51.3	51.3	82	46.0	0	1	338	0.00	29.841 
02:00	51.0	51.0	51.0	83	46.0	0	0	---	0.00	29.842 
02:05	50.8	50.8	50.8	83	45.8	0	0	---	0.00	29.843 
02:10	50.7	50.7	50.7	84	46.0	0	0	---	0.00	29.845 
02:15	50.4	50.4	50.4	84	45.7	0	0	---	0.00	29.843 
02:20	50.2	50.2	50.2	84	45.6	0	0	---	0.00	29.845 
02:25	49.9	49.9	49.9	85	45.6	0	0	---	0.00	29.843 
02:30	49.8	49.8	49.8	86	45.8	0	0	---	0.00	29.843 
02:35	49.5	49.5	49.5	86	45.5	0	0	---	0.00	29.844 
02:40	49.2	49.2	49.2	87	45.5	0	0	---	0.00	29.845 
02:45	49.2	49.2	49.2	87	45.5	0	0	---	0.00	29.845 
02:50	49.1	49.1	49.1	88	45.7	0	0	---	0.00	29.847 
02:55	48.9	48.9	48.9	88	45.5	0	0	---	0.00	29.850 
03:00	48.8	48.8	48.8	88	45.4	0	0	---	0.00	29.853 
03:05	48.6	48.6	48.6	88	45.2	0	0	---	0.00	29.855 
03:10	48.5	48.5	48.5	88	45.1	0	0	---	0.00	29.856 
03:15	48.3	48.3	48.3	89	45.2	0	0	---	0.00	29.858 
03:20	48.2	48.2	48.2	89	45.1	0	0	---	0.00	29.859 
03:25	48.0	48.0	48.0	89	44.9	0	0	---	0.00	29.859 
03:30	47.9	47.9	47.9	89	44.8	0	0	---	0.00	29.860 
03:35	47.6	47.6	47.6	89	44.5	0	0	---	0.00	29.859 
03:40	47.4	47.4	47.4	90	44.6	0	0	---	0.00	29.860 
03:45	47.3	47.3	47.3	90	44.5	0	0	---	0.00	29.861 
03:50	47.1	47.1	47.1	90	44.3	0	0	---	0.00	29.864 
03:55	47.1	47.1	47.1	91	44.6	0	0	---	0.00	29.867 
04:00	47.0	47.0	47.0	91	44.5	0	0	---	0.00	29.868 
04:05	47.0	47.0	47.0	91	44.5	0	0	---	0.00	29.870 
04:10	46.8	46.8	46.8	91	44.3	0	0	---	0.00	29.874 
04:15	46.7	46.7	46.7	92	44.5	0	0	---	0.00	29.875 
04:20	46.7	46.7	46.7	92	44.5	0	0	---	0.00	29.875 
04:25	46.5	46.5	46.5	92	44.3	0	0	---	0.00	29.876 
04:30	46.4	46.4	46.4	92	44.2	0	0	---	0.00	29.881 
04:35	46.2	46.2	46.2	92	44.0	0	0	---	0.00	29.882 
04:40	46.1	46.1	46.1	92	43.9	0	0	---	0.00	29.881 
04:45	46.1	46.1	46.1	92	43.9	0	0	---	0.00	29.886 
04:50	46.0	46.0	46.0	92	43.8	0	0	---	0.00	29.886 
04:55	46.0	46.0	46.0	92	43.8	0	0	---	0.00	29.887 
05:00	45.8	45.8	45.8	92	43.6	0	0	---	0.00	29.888 
05:05	45.7	45.7	45.7	92	43.5	0	0	---	0.00	29.890 
05:10	45.5	45.5	45.5	92	43.3	0	0	---	0.00	29.891 
05:15	45.2	45.2	45.2	92	43.0	0	0	---	0.00	29.894 
05:20	45.2	45.2	45.2	92	43.0	0	0	---	0.00	29.894 
05:25	45.1	45.1	45.1	92	42.9	0	0	---	0.00	29.896 
05:30	45.1	45.1	45.1	92	42.9	0	0	---	0.00	29.897 
05:35	45.1	45.1	45.1	93	43.2	0	0	---	0.00	29.899 
05:40	45.1	45.1	45.1	93	43.2	0	0	---	0.00	29.905 
05:45	45.2	45.2	45.2	93	43.3	0	0	---	0.00	29.907 
05:50	45.2	45.2	45.2	93	43.3	0	0	---	0.00	29.909 
05:55	45.4	45.4	45.4	94	43.8	0	0	---	0.00	29.908 
06:00	45.7	45.7	45.7	94	44.1	0	0	---	0.00	29.907 
06:05	45.8	45.8	45.8	94	44.2	0	0	---	0.00	29.910 
06:10	46.1	46.1	46.1	94	44.5	0	0	---	0.00	29.909 
06:15	46.2	46.2	46.2	94	44.6	0	0	---	0.00	29.909 
06:20	46.7	46.7	46.7	94	45.1	0	1	338	0.00	29.909 
06:25	47.3	47.3	47.3	93	45.4	0	1	338	0.00	29.908 
06:30	47.6	47.6	47.6	92	45.4	0	1	338	0.00	29.908 
06:35	48.0	48.0	48.0	89	44.9	0	1	338	0.00	29.908 
06:40	48.6	48.6	48.6	88	45.2	0	1	338	0.00	29.908 
06:45	49.1	49.1	49.1	87	45.4	0	1	338	0.00	29.906 
06:50	49.8	49.8	49.8	85	45.5	0	2	338	0.00	29.905 
06:55	50.2	50.2	50.2	84	45.6	0	1	338	0.00	29.906 
07:00	50.7	50.7	50.7	83	45.7	0	1	338	0.00	29.906 
07:05	51.6	51.6	51.6	81	46.0	0	2	338	0.00	29.909 
07:10	52.5	52.5	52.5	78	45.8	0	1	0	0.00	29.907 
07:15	53.1	53.1	53.1	77	46.1	0	1	0	0.00	29.909 
07:20	53.9	53.9	53.9	76	46.5	1	3	0	0.00	29.910 
07:25	54.5	54.5	54.5	76	47.1	1	3	68	0.00	29.909 
07:30	55.1	55.1	55.1	76	47.7	0	2	68	0.00	29.910 
07:35	55.7	55.7	55.7	72	46.8	1	2	68	0.00	29.910 
07:40	56.3	56.3	56.3	73	47.8	0	1	68	0.00	29.910 
07:45	56.9	56.9	56.9	71	47.6	0	2	68	0.00	29.910 
07:50	57.3	57.3	57.3	72	48.3	0	2	68	0.00	29.910 
07:55	57.5	57.5	57.5	71	48.2	1	3	68	0.00	29.909 
08:00	57.5	57.5	57.5	71	48.2	1	3	68	0.00	29.908 
08:05	58.0	58.0	58.0	71	48.6	1	3	68	0.00	29.911 
08:10	58.3	58.3	58.3	70	48.6	1	2	68	0.00	29.914 
08:15	58.6	58.6	58.6	69	48.5	1	4	90	0.00	29.917 
08:20	58.6	58.6	58.6	69	48.5	1	3	90	0.00	29.920 
08:25	58.7	58.7	58.7	69	48.6	1	4	90	0.00	29.918 
08:30	59.0	59.0	59.0	70	49.2	1	3	112	0.00	29.920 
08:35	58.9	58.9	58.9	68	48.4	2	5	90	0.00	29.920 
08:40	58.7	58.7	58.7	69	48.6	1	3	90	0.00	29.919 
08:45	59.3	59.3	59.3	69	49.1	1	3	112	0.00	29.920 
08:50	59.2	59.2	59.2	67	48.2	1	3	90	0.00	29.920 
08:55	59.3	59.3	59.3	68	48.7	1	3	90	0.00	29.919 
09:00	58.9	58.9	58.9	69	48.7	1	4	135	0.00	29.919 
09:05	59.0	59.0	59.0	67	48.1	1	3	112	0.00	29.919 
09:10	59.9	59.9	59.9	65	48.1	1	2	112	0.00	29.918 
09:15	60.5	60.5	60.5	65	48.7	2	4	90	0.00	29.914 
09:20	61.5	61.5	61.5	64	49.2	1	4	112	0.00	29.916 
09:25	61.6	61.6	61.6	61	48.0	1	3	112	0.00	29.917 
09:30	61.3	61.3	61.3	61	47.7	2	4	112	0.00	29.919 
09:35	61.6	61.6	61.6	59	47.1	1	2	112	0.00	29.919 
09:40	62.6	62.6	62.6	60	48.5	1	3	112	0.00	29.917 
09:45	62.9	62.9	62.9	58	47.9	1	4	112	0.00	29.916 
09:50	62.3	62.3	62.3	56	46.4	2	7	90	0.00	29.921 
09:55	61.5	61.5	61.5	58	46.6	1	2	90	0.00	29.923 
10:00	61.8	61.8	61.8	60	47.8	1	4	90	0.00	29.920 
10:05	62.4	62.4	62.4	56	46.5	2	4	135	0.00	29.922 
10:10	62.9	62.9	62.9	55	46.5	1	2	112	0.00	29.926 
10:15	63.4	63.4	63.4	57	47.9	2	5	112	0.00	29.924 
10:20	63.1	63.1	63.1	54	46.2	2	5	90	0.00	29.927 
10:25	62.9	62.9	62.9	54	46.0	2	5	112	0.00	29.927 
10:30	63.1	63.1	63.1	54	46.2	1	3	112	0.00	29.927 
10:35	62.9	62.9	62.9	50	44.0	3	7	90	0.00	29.930 
10:40	63.4	63.4	63.4	55	46.9	1	3	90	0.00	29.931 
10:45	63.5	63.5	63.5	51	45.0	0	2	90	0.00	29.930 
10:50	63.7	63.7	63.7	54	46.7	1	3	90	0.00	29.927 
10:55	64.3	64.3	64.3	51	45.8	1	5	90	0.00	29.925 
11:00	64.7	64.7	64.7	56	48.6	0	2	248	0.00	29.926 
11:05	64.8	64.8	64.8	54	47.8	2	5	112	0.00	29.924 
11:10	65.0	65.0	65.0	49	45.4	2	4	90	0.00	29.920 
11:15	65.5	65.5	65.5	51	46.9	1	4	90	0.00	29.919 
11:20	65.0	65.0	65.0	50	45.9	2	4	90	0.00	29.917 
11:25	65.5	65.5	65.5	50	46.4	1	4	90	0.00	29.917 
11:30	65.8	65.8	65.8	46	44.4	1	3	248	0.00	29.911 
11:35	65.5	65.5	65.5	47	44.7	2	6	90	0.00	29.915 
11:40	65.5	65.5	65.5	47	44.7	2	5	90	0.00	29.911 
11:45	65.5	65.5	65.5	48	45.3	1	3	90	0.00	29.907 
11:50	65.6	65.6	65.6	45	43.7	2	5	112	0.00	29.908 
11:55	66.0	66.0	66.0	49	46.3	1	4	248	0.00	29.907 
12:00	66.3	66.3	66.3	47	45.5	1	3	112	0.00	29.903 
12:05	66.4	66.4	66.4	44	43.8	2	5	90	0.00	29.901 
12:10	66.3	66.3	66.3	45	44.3	3	5	112	0.00	29.901 
12:15	66.3	66.3	66.3	47	45.5	2	6	90	0.00	29.900 
12:20	66.1	66.1	66.1	49	46.4	3	5	90	0.00	29.899 
12:25	66.4	66.4	66.4	45	44.4	1	3	112	0.00	29.901 
12:30	66.9	66.9	66.9	41	42.4	2	6	90	0.00	29.901 
12:35	67.3	67.3	67.3	40	42.1	2	6	90	0.00	29.899 
12:40	67.3	67.3	67.3	39	41.5	2	5	90	0.00	29.896 
12:45	67.6	67.6	67.6	45	45.5	1	4	90	0.00	29.892 
12:50	68.3	68.3	68.3	43	44.9	1	4	292	0.00	29.890 
12:55	68.4	68.4	68.4	40	43.1	2	5	90	0.00	29.885 
13:00	68.3	68.3	68.3	45	46.1	2	4	248	0.00	29.883 
13:05	68.8	68.8	68.8	44	46.0	2	5	248	0.00	29.878 
13:10	68.9	68.9	68.9	37	41.5	2	6	90	0.00	29.881 
13:15	69.1	69.1	69.1	40	43.8	1	3	248	0.00	29.879 
13:20	69.1	69.1	69.1	41	44.4	1	4	248	0.00	29.881 
13:25	69.3	69.3	69.3	39	43.3	2	7	90	0.00	29.877 
13:30	69.3	69.3	69.3	42	45.2	2	4	248	0.00	29.876 
13:35	69.3	69.3	69.3	38	42.6	1	4	248	0.00	29.878 
13:40	69.9	69.9	69.9	42	45.8	1	3	22	0.00	29.877 
13:45	70.4	70.4	70.4	40	44.9	1	3	315	0.00	29.876 
13:50	70.9	70.9	70.9	40	45.4	1	4	248	0.00	29.873 
13:55	70.9	70.9	70.9	38	44.0	2	6	112	0.00	29.872 
14:00	70.8	70.8	70.8	41	45.9	2	4	90	0.00	29.869 
14:05	71.1	71.1	71.1	38	44.2	1	5	248	0.00	29.870 
14:10	71.8	71.8	71.8	43	48.1	1	3	248	0.00	29.869 
14:15	72.1	72.1	72.1	38	45.1	1	4	90	0.00	29.869 
14:20	71.8	71.8	71.8	37	44.1	1	4	248	0.00	29.869 
14:25	72.1	72.1	72.1	35	42.9	2	4	270	0.00	29.869 
14:30	72.1	72.1	72.1	37	44.4	1	5	292	0.00	29.869 
14:35	72.3	72.3	72.3	36	43.8	1	4	112	0.00	29.867 
14:40	72.7	72.7	72.7	40	47.0	2	4	270	0.00	29.866 
14:45	72.8	72.8	72.8	38	45.7	1	4	248	0.00	29.861 
14:50	72.8	72.8	72.8	37	45.0	2	6	248	0.00	29.858 
14:55	72.7	72.7	72.7	37	44.9	2	6	270	0.00	29.861 
15:00	73.2	73.2	73.2	38	46.1	1	4	248	0.00	29.861 
15:05	73.5	73.5	73.5	32	41.8	1	5	22	0.00	29.859 
15:10	73.5	73.5	73.5	36	44.9	1	4	270	0.00	29.861 
15:15	73.7	73.7	73.7	34	43.6	2	5	90	0.00	29.856 
15:20	74.0	74.0	74.0	39	47.5	0	2	292	0.00	29.854 
15:25	74.2	74.2	74.2	35	44.8	1	3	90	0.00	29.853 
15:30	73.9	73.9	73.9	33	43.0	1	2	45	0.00	29.855 
15:35	73.3	73.3	73.3	34	43.2	1	3	270	0.00	29.854 
15:40	73.0	73.0	73.0	33	42.2	1	3	248	0.00	29.852 
15:45	73.0	73.0	73.0	32	41.4	1	3	248	0.00	29.851 
15:50	73.2	73.2	73.2	36	44.6	1	3	270	0.00	29.849 
15:55	73.7	73.7	73.7	35	44.3	1	4	248	0.00	29.851 
16:00	73.9	73.9	73.9	31	41.3	1	3	248	0.00	29.845 
16:05	73.9	73.9	73.9	38	46.7	1	3	90	0.00	29.848 
16:10	74.0	74.0	74.0	33	43.1	1	4	90	0.00	29.849 
16:15	73.7	73.7	73.7	37	45.8	1	4	270	0.00	29.848 
16:20	73.3	73.3	73.3	38	46.1	0	2	270	0.00	29.849 
16:25	73.7	73.7	73.7	36	45.1	0	2	270	0.00	29.844 
16:30	74.2	74.2	74.2	36	45.5	0	2	248	0.00	29.840 
16:35	74.4	74.4	74.4	35	44.9	1	3	248	0.00	29.838 
16:40	73.9	73.9	73.9	36	45.2	1	4	248	0.00	29.838 
16:45	74.0	74.0	74.0	39	47.5	0	3	112	0.00	29.837 
16:50	74.2	74.2	74.2	36	45.5	0	2	112	0.00	29.837 
16:55	74.2	74.2	74.2	35	44.8	1	4	225	0.00	29.838 
17:00	74.2	74.2	74.2	39	47.6	0	2	270	0.00	29.839 
17:05	73.9	73.9	73.9	38	46.7	0	2	270	0.00	29.839 
17:10	73.5	73.5	73.5	40	47.7	1	3	68	0.00	29.839 
17:15	73.3	73.3	73.3	41	48.2	1	3	68	0.00	29.840 
17:20	73.2	73.2	73.2	42	48.7	0	1	68	0.00	29.840 
17:25	73.3	73.3	73.3	37	45.4	0	1	68	0.00	29.839 
17:30	73.7	73.7	73.7	39	47.2	0	2	68	0.00	29.837 
17:35	73.7	73.7	73.7	40	47.9	1	2	248	0.00	29.837 
17:40	73.9	73.9	73.9	40	48.0	0	2	202	0.00	29.834 
17:45	73.9	73.9	73.9	38	46.7	0	1	202	0.00	29.836 
17:50	74.0	74.0	74.0	40	48.1	0	1	202	0.00	29.836 
17:55	74.0	74.0	74.0	41	48.8	0	1	202	0.00	29.832 
18:00	73.9	73.9	73.9	37	46.0	0	2	202	0.00	29.832 
18:05	73.7	73.7	73.7	37	45.8	0	2	202	0.00	29.823 
18:10	73.5	73.5	73.5	38	46.3	0	1	202	0.00	29.820 
18:15	73.3	73.3	73.3	39	46.8	0	0	---	0.00	29.819 
18:20	73.3	73.3	73.3	38	46.1	0	1	202	0.00	29.819 
18:25	73.2	73.2	73.2	38	46.1	0	1	202	0.00	29.817 
18:30	73.2	73.2	73.2	41	48.1	0	1	202	0.00	29.814 
18:35	73.0	73.0	73.0	42	48.5	0	1	202	0.00	29.813 
18:40	72.8	72.8	72.8	42	48.4	0	1	202	0.00	29.814 
18:45	72.7	72.7	72.7	43	48.9	0	1	202	0.00	29.813 
18:50	72.5	72.5	72.5	44	49.3	0	0	---	0.00	29.814 
18:55	72.3	72.3	72.3	46	50.3	0	0	---	0.00	29.815 
19:00	72.0	72.0	72.0	44	48.9	0	0	---	0.00	29.813 
19:05	71.6	71.6	71.6	43	47.9	0	0	---	0.00	29.809 
19:10	71.6	71.6	71.6	45	49.1	0	0	---	0.00	29.806 
19:15	71.5	71.5	71.5	47	50.2	0	1	202	0.00	29.808 
19:20	71.5	71.5	71.5	45	49.0	0	1	202	0.00	29.805 
19:25	71.5	71.5	71.5	46	49.6	0	1	202	0.00	29.806 
19:30	71.3	71.3	71.3	46	49.4	0	1	202	0.00	29.809 
19:35	71.3	71.3	71.3	46	49.4	0	1	202	0.00	29.806 
19:40	71.3	71.3	71.3	47	50.0	0	1	202	0.00	29.808 
19:45	70.9	70.9	70.9	47	49.7	0	0	---	0.00	29.812 
19:50	70.8	70.8	70.8	48	50.1	0	0	---	0.00	29.813 
19:55	70.4	70.4	70.4	51	51.4	0	1	202	0.00	29.812 
20:00	70.3	70.3	70.3	51	51.3	0	2	202	0.00	29.805 
20:05	70.1	70.1	70.1	50	50.6	0	1	202	0.00	29.805 
20:10	69.9	69.9	69.9	50	50.4	0	0	---	0.00	29.806 
20:15	69.6	69.6	69.6	50	50.1	0	0	---	0.00	29.809 
20:20	69.3	69.3	69.3	50	49.8	0	1	202	0.00	29.804 
20:25	69.1	69.1	69.1	51	50.2	0	2	180	0.00	29.804 
20:30	68.9	68.9	68.9	52	50.5	1	2	135	0.00	29.802 
20:35	68.8	68.8	68.8	53	51.0	1	2	135	0.00	29.804 
20:40	68.4	68.4	68.4	54	51.1	0	2	135	0.00	29.804 
20:45	68.3	68.3	68.3	54	51.0	0	1	135	0.00	29.802 
20:50	67.9	67.9	67.9	54	50.6	0	1	112	0.00	29.801 
20:55	67.8	67.8	67.8	56	51.5	0	1	112	0.00	29.801 
21:00	67.4	67.4	67.4	57	51.6	0	1	112	0.00	29.801 
21:05	66.8	66.8	66.8	56	50.6	0	0	---	0.00	29.801 
21:10	66.4	66.4	66.4	57	50.7	0	0	---	0.00	29.801 
21:15	66.0	66.0	66.0	58	50.8	0	0	---	0.00	29.801 
21:20	65.6	65.6	65.6	60	51.3	0	0	---	0.00	29.801 
21:25	65.2	65.2	65.2	59	50.5	0	0	---	0.00	29.805 
21:30	64.8	64.8	64.8	60	50.6	0	0	---	0.00	29.807 
21:35	64.5	64.5	64.5	60	50.3	0	0	---	0.00	29.809 
21:40	64.2	64.2	64.2	60	50.0	0	0	---	0.00	29.812 
21:45	64.2	64.2	64.2	60	50.0	0	1	112	0.00	29.809 
21:50	64.0	64.0	64.0	60	49.8	0	0	---	0.00	29.806 
21:55	63.9	63.9	63.9	60	49.7	0	1	112	0.00	29.804 
22:00	64.0	64.0	64.0	59	49.4	0	1	112	0.00	29.805 
22:05	64.0	64.0	64.0	60	49.8	0	1	112	0.00	29.802 
22:10	64.0	64.0	64.0	59	49.4	0	1	112	0.00	29.803 
22:15	64.2	64.2	64.2	59	49.6	0	2	112	0.00	29.801 
22:20	64.3	64.3	64.3	59	49.7	0	1	112	0.00	29.800 
22:25	64.5	64.5	64.5	60	50.3	0	1	112	0.00	29.798 
22:30	64.5	64.5	64.5	59	49.8	0	1	112	0.00	29.799 
22:35	64.5	64.5	64.5	61	50.7	0	1	112	0.00	29.799 
22:40	64.5	64.5	64.5	60	50.3	0	1	112	0.00	29.800 
22:45	64.5	64.5	64.5	60	50.3	0	0	---	0.00	29.802 
22:50	64.3	64.3	64.3	62	51.0	0	1	112	0.00	29.805 
22:55	64.0	64.0	64.0	62	50.7	0	0	---	0.00	29.804 
23:00	64.0	64.0	64.0	62	50.7	0	1	112	0.00	29.802 
23:05	63.9	63.9	63.9	63	51.1	0	1	112	0.00	29.801 
23:10	63.7	63.7	63.7	63	50.9	0	0	---	0.00	29.802 
23:15	63.5	63.5	63.5	63	50.7	0	1	112	0.00	29.800 
23:20	63.4	63.4	63.4	63	50.6	0	1	112	0.00	29.800 
23:25	63.4	63.4	63.4	65	51.4	0	1	112	0.00	29.801 
23:30	63.2	63.2	63.2	66	51.6	0	1	112	0.00	29.800 
23:35	63.1	63.1	63.1	66	51.6	0	0	---	0.00	29.800 
23:40	62.9	62.9	62.9	67	51.8	0	0	---	0.00	29.798 
23:45	62.6	62.6	62.6	68	51.9	0	0	---	0.00	29.798 
23:50	62.3	62.3	62.3	69	52.0	0	0	---	0.00	29.798 
23:55	62.1	62.1	62.1	69	51.8	0	0	---	0.00	29.798 

CoCoRaHS
IN-AL-39
A2 Web Hosting
Creative Commons License
GoDaddy
Look for:

loaded 2017-10-20 19:41:50 • last modified 2010-11-18 10:43:29
Privacy PolicyDisclaimer
• wx.awcolley.com is powered by PmWiki v.2002016 •
• all content (unless otherwise noted) © 2017 A W Colley